createdAt,value
2017-12-23T00:02:06.341Z,79.30
2017-12-23T00:04:33.997Z,79.30
2017-12-23T00:07:01.600Z,79.30
2017-12-23T00:09:29.225Z,79.30
2017-12-23T00:11:58.315Z,79.30
2017-12-23T00:14:27.424Z,79.30
2017-12-23T00:16:55.753Z,79.10
2017-12-23T00:19:23.426Z,79.10
2017-12-23T00:21:51.003Z,79.10
2017-12-23T00:24:19.477Z,79.80
2017-12-23T00:26:47.068Z,79.10
2017-12-23T00:29:14.691Z,79.20
2017-12-23T00:31:42.276Z,79.00
2017-12-23T00:34:10.648Z,79.10
2017-12-23T00:36:39.005Z,78.50
2017-12-23T00:39:06.611Z,79.00
2017-12-23T00:41:35.068Z,79.10
2017-12-23T00:44:03.443Z,79.30
2017-12-23T00:46:31.034Z,79.30
2017-12-23T00:48:59.489Z,79.30
2017-12-23T00:51:27.096Z,79.20
2017-12-23T00:53:54.728Z,79.40
2017-12-23T00:56:23.104Z,79.90
2017-12-23T00:58:51.475Z,79.20
2017-12-23T01:01:19.087Z,79.20
2017-12-23T01:03:46.673Z,79.20
2017-12-23T01:06:14.373Z,79.00
2017-12-23T01:08:42.728Z,79.00
2017-12-23T01:11:10.341Z,79.00
2017-12-23T01:13:37.923Z,78.90
2017-12-23T01:16:05.535Z,79.00
2017-12-23T01:18:33.195Z,79.20
2017-12-23T01:21:00.860Z,79.30
2017-12-23T01:23:28.457Z,79.30
2017-12-23T01:25:56.912Z,79.30
2017-12-23T01:28:24.500Z,79.30
2017-12-23T01:30:52.864Z,79.20
2017-12-23T01:33:21.338Z,79.10
2017-12-23T01:35:49.698Z,79.10
2017-12-23T01:38:17.316Z,79.10
2017-12-23T01:40:44.912Z,79.10
2017-12-23T01:43:12.536Z,79.30
2017-12-23T01:45:40.137Z,79.30
2017-12-23T01:48:07.752Z,79.50
2017-12-23T01:50:36.203Z,79.60
2017-12-23T01:53:04.682Z,79.70
2017-12-23T01:55:33.077Z,79.90
2017-12-23T01:58:01.492Z,80.50
2017-12-23T02:00:29.832Z,80.10
2017-12-23T02:02:58.208Z,80.10
2017-12-23T02:05:25.805Z,80.00
2017-12-23T02:07:53.448Z,80.40
2017-12-23T02:10:21.913Z,80.70
2017-12-23T02:12:49.642Z,80.70
2017-12-23T02:15:17.335Z,80.80
2017-12-23T02:17:45.004Z,81.10
2017-12-23T02:20:12.671Z,81.20
2017-12-23T02:22:40.276Z,81.20
2017-12-23T02:25:07.898Z,81.10
2017-12-23T02:27:37.087Z,81.00
2017-12-23T02:30:04.748Z,81.00
2017-12-23T02:32:32.418Z,81.00
2017-12-23T02:35:00.904Z,81.00
2017-12-23T02:37:29.272Z,81.20
2017-12-23T02:39:56.871Z,81.20
2017-12-23T02:42:25.232Z,81.40
2017-12-23T02:44:53.607Z,81.40
2017-12-23T02:47:21.975Z,81.90
2017-12-23T02:49:51.170Z,81.30
2017-12-23T02:52:18.751Z,81.30
2017-12-23T02:54:47.217Z,81.40
2017-12-23T02:57:15.605Z,81.90
2017-12-23T02:59:43.207Z,81.00
2017-12-23T03:02:10.788Z,81.00
2017-12-23T03:04:38.393Z,81.00
2017-12-23T03:07:06.743Z,82.10
2017-12-23T03:09:34.360Z,81.10
2017-12-23T03:12:02.813Z,81.00
2017-12-23T03:14:31.183Z,81.30
2017-12-23T03:16:59.569Z,80.90
2017-12-23T03:19:27.924Z,80.80
2017-12-23T03:21:55.544Z,80.80
2017-12-23T03:24:23.126Z,80.90
2017-12-23T03:26:50.832Z,80.80
2017-12-23T03:29:18.411Z,80.80
2017-12-23T03:31:46.779Z,80.90
2017-12-23T03:34:15.147Z,80.90
2017-12-23T03:36:42.808Z,80.80
2017-12-23T03:39:10.397Z,80.90
2017-12-23T03:41:38.847Z,80.80
2017-12-23T03:44:06.512Z,80.80
2017-12-23T03:46:34.172Z,80.70
2017-12-23T03:49:01.841Z,80.70
2017-12-23T03:51:29.503Z,80.70
2017-12-23T03:53:57.872Z,80.60
2017-12-23T03:56:25.538Z,80.60
2017-12-23T03:58:53.149Z,80.50
2017-12-23T04:01:20.743Z,80.50
2017-12-23T04:03:48.424Z,80.40
2017-12-23T04:06:16.007Z,80.40
2017-12-23T04:08:44.375Z,80.50
2017-12-23T04:11:13.470Z,80.50
2017-12-23T04:13:41.943Z,81.20
2017-12-23T04:16:11.135Z,80.40
2017-12-23T04:18:38.745Z,80.30
2017-12-23T04:21:06.368Z,80.20
2017-12-23T04:23:34.844Z,80.20
2017-12-23T04:26:02.512Z,80.20
2017-12-23T04:28:31.600Z,80.10
2017-12-23T04:30:59.211Z,80.10
2017-12-23T04:33:26.814Z,80.00
2017-12-23T04:35:54.483Z,79.80
2017-12-23T04:38:22.147Z,79.70
2017-12-23T04:40:49.807Z,79.70
2017-12-23T04:43:17.391Z,79.80
2017-12-23T04:45:45.763Z,79.90
2017-12-23T04:48:14.116Z,79.80
2017-12-23T04:50:42.603Z,79.70
2017-12-23T04:53:10.189Z,79.70
2017-12-23T04:55:38.561Z,79.70
2017-12-23T04:58:06.906Z,79.80
2017-12-23T05:00:34.587Z,79.70
2017-12-23T05:03:02.168Z,80.00
2017-12-23T05:05:30.540Z,79.90
2017-12-23T05:07:59.008Z,79.90
2017-12-23T05:10:26.676Z,79.80
2017-12-23T05:12:55.047Z,80.50
2017-12-23T05:15:22.702Z,79.60
2017-12-23T05:17:50.303Z,79.60
2017-12-23T05:20:18.665Z,79.50
2017-12-23T05:22:47.039Z,79.50
2017-12-23T05:25:15.383Z,79.20
2017-12-23T05:27:43.072Z,79.30
2017-12-23T05:30:10.740Z,78.90
2017-12-23T05:32:39.216Z,79.10
2017-12-23T05:35:06.850Z,79.10
2017-12-23T05:37:34.539Z,79.10
2017-12-23T05:40:02.133Z,79.00
2017-12-23T05:42:30.520Z,79.10
2017-12-23T05:44:58.138Z,79.10
2017-12-23T05:47:25.799Z,79.10
2017-12-23T05:49:53.464Z,79.00
2017-12-23T05:52:21.045Z,79.20
2017-12-23T05:54:49.508Z,79.30
2017-12-23T05:57:17.096Z,79.30
2017-12-23T05:59:45.471Z,79.20
2017-12-23T06:02:13.927Z,79.30
2017-12-23T06:04:41.536Z,79.30
2017-12-23T06:07:09.123Z,79.30
2017-12-23T06:09:36.732Z,79.40
2017-12-23T06:12:05.190Z,79.60
2017-12-23T06:14:32.860Z,79.50
2017-12-23T06:17:00.519Z,79.70
2017-12-23T06:19:28.123Z,79.80
2017-12-23T06:21:55.703Z,79.90
2017-12-23T06:24:23.404Z,80.10
2017-12-23T06:26:50.987Z,80.30
2017-12-23T06:29:19.331Z,80.60
2017-12-23T06:31:46.936Z,80.60
2017-12-23T06:34:15.387Z,80.70
2017-12-23T06:36:42.991Z,80.80
2017-12-23T06:39:10.568Z,80.90
2017-12-23T06:41:38.175Z,81.00
2017-12-23T06:44:07.367Z,81.10
2017-12-23T06:46:34.971Z,81.10
2017-12-23T06:49:02.595Z,81.20
2017-12-23T06:51:30.256Z,81.40
2017-12-23T06:53:57.920Z,81.60
2017-12-23T06:56:25.583Z,81.70
2017-12-23T06:58:53.937Z,81.70
2017-12-23T07:01:21.524Z,81.80
2017-12-23T07:03:50.648Z,82.00
2017-12-23T07:06:18.999Z,82.00
2017-12-23T07:08:47.480Z,82.20
2017-12-23T07:11:15.148Z,82.20
2017-12-23T07:13:43.539Z,82.40
2017-12-23T07:16:11.891Z,82.70
2017-12-23T07:18:39.563Z,82.70
2017-12-23T07:21:07.209Z,82.80
2017-12-23T07:23:34.887Z,82.90
2017-12-23T07:26:02.551Z,82.90
2017-12-23T07:28:30.155Z,82.90
2017-12-23T07:30:57.739Z,83.00
2017-12-23T07:33:25.353Z,83.10
2017-12-23T07:35:53.711Z,84.40
2017-12-23T07:38:21.332Z,83.60
2017-12-23T07:40:49.011Z,83.60
2017-12-23T07:43:16.561Z,83.70
2017-12-23T07:45:44.166Z,83.50
2017-12-23T07:48:11.832Z,83.40
2017-12-23T07:50:40.307Z,83.80
2017-12-23T07:53:07.896Z,83.80
2017-12-23T07:55:36.268Z,84.00
2017-12-23T07:58:04.624Z,84.00
2017-12-23T08:00:33.935Z,84.00
2017-12-23T08:03:02.292Z,84.20
2017-12-23T08:05:29.903Z,84.20
2017-12-23T08:07:58.254Z,84.20
2017-12-23T08:10:25.916Z,84.20
2017-12-23T08:12:55.008Z,84.50
2017-12-23T08:15:22.688Z,84.40
2017-12-23T08:17:51.050Z,84.40
2017-12-23T08:20:18.632Z,84.40
2017-12-23T08:22:47.004Z,84.50
2017-12-23T08:25:14.588Z,84.50
2017-12-23T08:27:43.040Z,84.90
2017-12-23T08:30:11.388Z,84.90
2017-12-23T08:32:39.080Z,84.90
2017-12-23T08:35:07.455Z,85.20
2017-12-23T08:37:35.061Z,85.20
2017-12-23T08:40:02.645Z,85.30
2017-12-23T08:42:30.248Z,85.30
2017-12-23T08:44:59.445Z,85.20
2017-12-23T08:47:27.056Z,85.20
2017-12-23T08:49:54.660Z,85.30
2017-12-23T08:52:23.863Z,85.30
2017-12-23T08:54:52.203Z,85.60
2017-12-23T08:57:19.869Z,85.60
2017-12-23T08:59:47.568Z,85.40
2017-12-23T09:02:16.652Z,85.20
2017-12-23T09:04:44.260Z,85.10
2017-12-23T09:07:12.600Z,85.00
2017-12-23T09:09:41.791Z,84.90
2017-12-23T09:12:09.376Z,84.80
2017-12-23T09:14:36.971Z,84.90
2017-12-23T09:17:04.554Z,84.70
2017-12-23T09:19:32.247Z,84.70
2017-12-23T09:22:00.592Z,85.40
2017-12-23T09:24:28.288Z,84.70
2017-12-23T09:26:57.376Z,84.60
2017-12-23T09:29:25.051Z,84.50
2017-12-23T09:31:54.248Z,84.50
2017-12-23T09:34:21.847Z,84.40
2017-12-23T09:36:49.518Z,84.40
2017-12-23T09:39:17.951Z,84.70
2017-12-23T09:41:45.620Z,84.70
2017-12-23T09:44:13.204Z,84.80
2017-12-23T09:46:41.660Z,85.00
2017-12-23T09:49:09.320Z,84.90
2017-12-23T09:51:37.688Z,84.50
2017-12-23T09:54:05.329Z,84.90
2017-12-23T09:56:33.020Z,84.70
2017-12-23T09:59:00.697Z,84.70
2017-12-23T10:01:28.347Z,84.70
2017-12-23T10:03:55.919Z,84.70
2017-12-23T10:06:24.280Z,84.70
2017-12-23T10:08:51.962Z,84.70
2017-12-23T10:11:20.347Z,84.60
2017-12-23T10:13:48.004Z,84.50
2017-12-23T10:16:16.444Z,84.60
2017-12-23T10:18:44.144Z,84.60
2017-12-23T10:21:13.334Z,84.50
2017-12-23T10:23:40.935Z,84.50
2017-12-23T10:26:09.380Z,84.40
2017-12-23T10:28:37.042Z,84.40
2017-12-23T10:31:04.621Z,84.50
2017-12-23T10:33:32.215Z,84.40
2017-12-23T10:35:59.795Z,84.50
2017-12-23T10:38:27.560Z,84.40
2017-12-23T10:40:55.163Z,84.40
2017-12-23T10:43:22.758Z,84.40
2017-12-23T10:45:50.341Z,84.40
2017-12-23T10:48:18.039Z,84.40
2017-12-23T10:50:47.035Z,83.70
2017-12-23T10:53:16.130Z,84.50
2017-12-23T10:55:44.499Z,84.60
2017-12-23T10:58:12.176Z,84.60
2017-12-23T11:00:41.283Z,84.60
2017-12-23T11:03:08.931Z,85.40
2017-12-23T11:05:36.696Z,85.70
2017-12-23T11:08:05.790Z,85.10
2017-12-23T11:10:33.392Z,85.10
2017-12-23T11:13:01.830Z,85.20
2017-12-23T11:15:29.536Z,85.20
2017-12-23T11:17:57.868Z,85.50
2017-12-23T11:20:25.517Z,85.50
2017-12-23T11:22:53.203Z,85.70
2017-12-23T11:25:20.799Z,85.80
2017-12-23T11:27:49.139Z,85.70
2017-12-23T11:30:17.529Z,85.30
2017-12-23T11:32:45.186Z,85.40
2017-12-23T11:35:13.530Z,85.10
2017-12-23T11:37:41.123Z,85.10
2017-12-23T11:40:08.792Z,85.10
2017-12-23T11:42:37.161Z,85.10
2017-12-23T11:45:04.831Z,85.20
2017-12-23T11:47:33.200Z,85.00
2017-12-23T11:50:00.876Z,85.10
2017-12-23T11:52:29.985Z,85.10
2017-12-23T11:54:58.331Z,85.20
2017-12-23T11:57:25.932Z,86.00
2017-12-23T11:59:54.293Z,85.50
2017-12-23T12:02:22.667Z,85.30
2017-12-23T12:04:50.244Z,85.40
2017-12-23T12:07:18.707Z,86.00
2017-12-23T12:09:46.284Z,85.20
2017-12-23T12:12:13.941Z,85.30
2017-12-23T12:14:41.544Z,85.10
2017-12-23T12:17:09.128Z,84.90
2017-12-23T12:19:36.727Z,85.10
2017-12-23T12:22:04.374Z,85.00
2017-12-23T12:24:32.039Z,84.90
2017-12-23T12:26:59.619Z,84.80
2017-12-23T12:29:27.227Z,84.80
2017-12-23T12:31:54.828Z,84.80
2017-12-23T12:34:23.311Z,84.70
2017-12-23T12:36:50.976Z,84.80
2017-12-23T12:39:18.630Z,84.80
2017-12-23T12:41:46.304Z,84.60
2017-12-23T12:44:13.964Z,84.40
2017-12-23T12:46:41.624Z,84.50
2017-12-23T12:49:09.965Z,84.40
2017-12-23T12:51:37.595Z,84.40
2017-12-23T12:54:05.944Z,84.40
2017-12-23T12:56:33.544Z,84.40
2017-12-23T12:59:01.232Z,84.50
2017-12-23T13:01:28.933Z,84.30
2017-12-23T13:03:56.517Z,84.00
2017-12-23T13:06:24.876Z,83.90
2017-12-23T13:08:52.524Z,83.90
2017-12-23T13:11:21.011Z,84.00
2017-12-23T13:13:48.679Z,84.80
2017-12-23T13:16:16.277Z,83.80
2017-12-23T13:18:43.857Z,83.80
2017-12-23T13:21:11.461Z,83.90
2017-12-23T13:23:39.823Z,84.10
2017-12-23T13:26:07.499Z,83.90
2017-12-23T13:28:35.175Z,84.20
2017-12-23T13:31:02.832Z,84.10
2017-12-23T13:33:30.496Z,84.20
2017-12-23T13:35:58.151Z,84.20
2017-12-23T13:38:27.354Z,84.10
2017-12-23T13:40:55.016Z,84.10
2017-12-23T13:43:22.684Z,82.90
2017-12-23T13:45:50.267Z,84.00
2017-12-23T13:48:18.712Z,84.20
2017-12-23T13:50:46.375Z,84.20
2017-12-23T13:53:13.976Z,84.20
2017-12-23T13:55:42.331Z,84.40
2017-12-23T13:58:09.983Z,84.30
2017-12-23T14:00:39.184Z,84.50
2017-12-23T14:03:06.831Z,84.50
2017-12-23T14:05:34.412Z,84.60
2017-12-23T14:08:01.995Z,84.50
2017-12-23T14:10:30.371Z,83.60
2017-12-23T14:12:58.729Z,83.50
2017-12-23T14:15:26.345Z,83.50
2017-12-23T14:17:53.947Z,83.50
2017-12-23T14:20:22.324Z,83.50
2017-12-23T14:22:49.914Z,83.50
2017-12-23T14:25:18.383Z,83.60
2017-12-23T14:27:45.968Z,83.60
2017-12-23T14:30:13.575Z,84.30
2017-12-23T14:32:41.176Z,84.10
2017-12-23T14:35:09.635Z,83.90
2017-12-23T14:37:37.982Z,84.00
2017-12-23T14:40:06.695Z,84.00
2017-12-23T14:42:34.372Z,84.10
2017-12-23T14:45:02.028Z,84.10
2017-12-23T14:47:29.706Z,84.30
2017-12-23T14:49:58.060Z,84.60
2017-12-23T14:52:25.732Z,84.60
2017-12-23T14:54:54.117Z,85.90
2017-12-23T14:57:22.501Z,85.20
2017-12-23T14:59:50.083Z,85.20
2017-12-23T15:02:18.465Z,85.20
2017-12-23T15:04:46.096Z,85.20
2017-12-23T15:07:13.755Z,85.20
2017-12-23T15:09:42.848Z,85.00
2017-12-23T15:12:11.340Z,85.30
2017-12-23T15:14:40.432Z,85.20
2017-12-23T15:17:08.044Z,85.20
2017-12-23T15:19:35.656Z,85.20
2017-12-23T15:22:03.279Z,85.30
2017-12-23T15:24:30.984Z,85.30
2017-12-23T15:26:58.646Z,85.30
2017-12-23T15:29:27.049Z,85.30
2017-12-23T15:31:55.559Z,85.20
2017-12-23T15:34:23.267Z,85.20
2017-12-23T15:36:50.852Z,85.20
2017-12-23T15:39:19.228Z,85.40
2017-12-23T15:41:47.580Z,85.30
2017-12-23T15:44:15.196Z,85.30
2017-12-23T15:46:42.811Z,85.20
2017-12-23T15:49:10.425Z,85.30
2017-12-23T15:51:38.100Z,85.40
2017-12-23T15:54:05.801Z,85.50
2017-12-23T15:56:33.461Z,85.40
2017-12-23T15:59:01.088Z,85.40
2017-12-23T16:01:28.853Z,85.70
2017-12-23T16:03:56.435Z,86.00
2017-12-23T16:06:24.112Z,86.00
2017-12-23T16:08:51.774Z,85.70
2017-12-23T16:11:19.435Z,85.40
2017-12-23T16:13:48.632Z,85.40
2017-12-23T16:16:16.239Z,85.40
2017-12-23T16:18:43.829Z,85.40
2017-12-23T16:21:11.521Z,85.40
2017-12-23T16:23:40.719Z,85.60
2017-12-23T16:26:09.092Z,86.40
2017-12-23T16:28:36.688Z,85.60
2017-12-23T16:31:05.059Z,85.80
2017-12-23T16:33:33.407Z,86.60
2017-12-23T16:36:01.015Z,85.80
2017-12-23T16:38:29.367Z,85.80
2017-12-23T16:40:57.760Z,85.90
2017-12-23T16:43:26.108Z,86.00
2017-12-23T16:45:53.780Z,86.00
2017-12-23T16:48:21.444Z,86.10
2017-12-23T16:50:49.112Z,86.20
2017-12-23T16:53:16.719Z,86.10
2017-12-23T16:55:44.312Z,86.20
2017-12-23T16:58:11.992Z,86.20
2017-12-23T17:00:39.576Z,86.20
2017-12-23T17:03:07.946Z,86.00
2017-12-23T17:05:36.304Z,86.30
2017-12-23T17:08:03.908Z,86.10
2017-12-23T17:10:32.361Z,86.20
2017-12-23T17:13:00.026Z,86.20
2017-12-23T17:15:27.680Z,86.20
2017-12-23T17:17:55.305Z,86.20
2017-12-23T17:20:22.903Z,86.20
2017-12-23T17:22:51.352Z,86.00
2017-12-23T17:25:19.053Z,85.90
2017-12-23T17:27:47.427Z,86.00
2017-12-23T17:30:34.401Z,86.00
2017-12-23T17:33:02.004Z,86.10
2017-12-23T17:35:29.608Z,86.10
2017-12-23T17:37:57.227Z,86.20
2017-12-23T17:40:24.836Z,86.20
2017-12-23T17:42:52.429Z,86.40
2017-12-23T17:45:20.111Z,86.40
2017-12-23T17:47:49.199Z,86.40
2017-12-23T17:50:16.878Z,86.40
2017-12-23T17:52:44.464Z,86.50
2017-12-23T17:55:12.855Z,86.30
2017-12-23T17:57:40.443Z,86.30
2017-12-23T18:00:08.028Z,86.30
2017-12-23T18:02:35.700Z,86.40
2017-12-23T18:05:03.323Z,86.30
2017-12-23T18:07:30.927Z,86.40
2017-12-23T18:09:58.519Z,86.50
2017-12-23T18:12:26.148Z,86.50
2017-12-23T18:14:53.804Z,86.40
2017-12-23T18:17:22.920Z,86.20
2017-12-23T18:19:51.396Z,86.90
2017-12-23T18:22:19.872Z,86.30
2017-12-23T18:24:47.531Z,86.00
2017-12-23T18:27:15.191Z,85.80
2017-12-23T18:29:42.776Z,85.80
2017-12-23T18:32:11.195Z,85.60
2017-12-23T18:34:38.799Z,85.50
2017-12-23T18:37:06.419Z,85.40
2017-12-23T18:39:33.999Z,85.20
2017-12-23T18:42:01.592Z,85.10
2017-12-23T18:44:29.239Z,84.80
2017-12-23T18:46:56.899Z,84.80
2017-12-23T18:49:24.568Z,84.50
2017-12-23T18:51:52.152Z,84.40
2017-12-23T18:54:20.519Z,84.20
2017-12-23T18:56:48.881Z,84.70
2017-12-23T18:59:16.551Z,84.00
2017-12-23T19:01:44.216Z,83.70
2017-12-23T19:04:11.871Z,83.30
2017-12-23T19:06:39.548Z,83.40
2017-12-23T19:09:07.210Z,83.40
2017-12-23T19:11:35.573Z,83.00
2017-12-23T19:14:03.239Z,82.90
2017-12-23T19:16:42.591Z,82.70
2017-12-23T19:19:10.238Z,82.60
2017-12-23T19:21:37.827Z,82.40
2017-12-23T19:24:06.197Z,82.10
2017-12-23T19:26:34.548Z,82.40
2017-12-23T19:29:02.150Z,81.80
2017-12-23T19:31:30.599Z,81.70
2017-12-23T19:33:58.215Z,81.60
2017-12-23T19:36:26.153Z,81.70
2017-12-23T19:38:54.615Z,81.40
2017-12-23T19:41:22.276Z,81.40
2017-12-23T19:43:49.860Z,81.20
2017-12-23T19:46:18.248Z,80.90
2017-12-23T19:48:46.673Z,80.70
2017-12-23T19:51:14.289Z,80.60
2017-12-23T19:53:42.647Z,80.50
2017-12-23T19:56:10.299Z,80.50
2017-12-23T19:58:38.783Z,80.40
2017-12-23T20:01:06.444Z,80.40
2017-12-23T20:03:34.032Z,80.40
2017-12-23T20:06:02.403Z,80.30
2017-12-23T20:08:30.751Z,80.20
2017-12-23T20:10:58.362Z,80.10
2017-12-23T20:13:26.708Z,80.30
2017-12-23T20:15:54.367Z,80.30
2017-12-23T20:18:21.958Z,80.20
2017-12-23T20:20:50.311Z,80.40
2017-12-23T20:23:19.508Z,80.30
2017-12-23T20:25:47.091Z,80.20
2017-12-23T20:28:15.559Z,80.20
2017-12-23T20:30:43.908Z,81.10
2017-12-23T20:33:11.512Z,80.10
2017-12-23T20:35:39.862Z,80.30
2017-12-23T20:38:07.458Z,80.20
2017-12-23T20:40:35.824Z,80.30
2017-12-23T20:43:04.288Z,81.10
2017-12-23T20:45:31.961Z,80.20
2017-12-23T20:47:59.578Z,80.20
2017-12-23T20:50:27.175Z,80.80
2017-12-23T20:52:54.845Z,80.30
2017-12-23T20:55:22.457Z,80.20
2017-12-23T20:57:50.041Z,80.10
2017-12-23T21:00:17.648Z,80.20
2017-12-23T21:02:45.999Z,80.10
2017-12-23T21:05:13.668Z,80.10
2017-12-23T21:07:41.243Z,80.00
2017-12-23T21:10:09.607Z,79.90
2017-12-23T21:12:37.184Z,79.90
2017-12-23T21:15:05.546Z,79.90
2017-12-23T21:17:33.131Z,79.90
2017-12-23T21:20:01.509Z,80.10
2017-12-23T21:22:29.884Z,80.10
2017-12-23T21:24:58.349Z,80.10
2017-12-23T21:27:26.009Z,80.10
2017-12-23T21:29:53.621Z,80.00
2017-12-23T21:32:21.231Z,80.00
2017-12-23T21:34:50.343Z,79.90
2017-12-23T21:37:18.696Z,80.60
2017-12-23T21:39:46.304Z,79.90
2017-12-23T21:42:13.923Z,79.70
2017-12-23T21:44:41.548Z,79.80
2017-12-23T21:47:09.163Z,79.90
2017-12-23T21:49:36.743Z,79.90
2017-12-23T21:52:05.103Z,79.80
2017-12-23T21:54:32.684Z,79.80
2017-12-23T21:57:01.061Z,79.90
2017-12-23T21:59:29.417Z,79.70
2017-12-23T22:01:57.149Z,79.60
2017-12-23T22:04:24.831Z,79.60
2017-12-23T22:06:52.438Z,79.60
2017-12-23T22:09:20.029Z,79.60
2017-12-23T22:11:47.639Z,79.50
2017-12-23T22:14:15.996Z,79.40
2017-12-23T22:16:43.673Z,79.40
2017-12-23T22:19:12.780Z,79.50
2017-12-23T22:21:41.243Z,79.30
2017-12-23T22:24:08.912Z,79.40
2017-12-23T22:26:37.293Z,79.20
2017-12-23T22:29:05.673Z,79.20
2017-12-23T22:31:33.265Z,79.20
2017-12-23T22:34:00.876Z,79.50
2017-12-23T22:36:28.465Z,79.20
2017-12-23T22:38:56.936Z,78.80
2017-12-23T22:41:24.592Z,78.80
2017-12-23T22:43:52.320Z,79.10
2017-12-23T22:46:19.984Z,79.00
2017-12-23T22:48:47.602Z,78.90
2017-12-23T22:51:16.064Z,78.60
2017-12-23T22:53:43.732Z,78.50
2017-12-23T22:56:11.319Z,79.60
2017-12-23T22:58:38.949Z,78.60
2017-12-23T23:01:06.610Z,78.50
2017-12-23T23:03:34.226Z,78.40
2017-12-23T23:06:01.816Z,78.40
2017-12-23T23:08:29.407Z,78.30
2017-12-23T23:10:57.123Z,78.40
2017-12-23T23:13:24.712Z,79.20
2017-12-23T23:15:52.383Z,78.40
2017-12-23T23:18:19.973Z,78.30
2017-12-23T23:20:48.354Z,78.20
2017-12-23T23:23:16.708Z,78.20
2017-12-23T23:25:44.320Z,78.20
2017-12-23T23:28:11.927Z,78.20
2017-12-23T23:30:39.655Z,78.10
2017-12-23T23:33:07.358Z,78.00
2017-12-23T23:35:35.024Z,78.00
2017-12-23T23:38:02.685Z,77.90
2017-12-23T23:40:30.283Z,78.00
2017-12-23T23:42:58.008Z,77.90
2017-12-23T23:45:25.592Z,77.90
2017-12-23T23:47:54.048Z,77.80
2017-12-23T23:50:21.704Z,77.80
2017-12-23T23:52:49.320Z,77.70
2017-12-23T23:55:16.935Z,77.80
2017-12-23T23:57:44.595Z,77.80
